Time;durP1;ratioP1;P1;durP2;ratioP2;P2;SDS_P1;SDS_P2;PMS_P1;PMS_P2;Temp;Humidity;BMP_temperature;BMP_pressure;BME280_temperature;BME280_humidity;BME280_pressure;Samples;Min_cycle;Max_cycle;Signal;HPM_P1;HPM_P2
2023/01/04 00:02:02;;;;;;;7.87;5.77;;;;;;;5.77;84.90;99959.63;4994911;28;102676;-67
2023/01/04 00:04:30;;;;;;;6.07;5.47;;;;;;;5.69;85.17;99971.28;4997063;28;103828;-66
2023/01/04 00:06:58;;;;;;;8.50;6.10;;;;;;;5.62;85.46;99964.50;4993595;28;103325;-67
2023/01/04 00:09:26;;;;;;;7.40;5.40;;;;;;;5.69;85.62;99960.78;4990296;28;103197;-67
2023/01/04 00:11:54;;;;;;;7.20;6.50;;;;;;;5.69;85.33;99958.16;4995893;28;102668;-67
2023/01/04 00:14:22;;;;;;;8.73;7.10;;;;;;;5.66;85.60;99960.88;4997032;28;102735;-67
2023/01/04 00:16:50;;;;;;;7.67;6.87;;;;;;;5.59;86.86;99960.22;4997773;28;103292;-70
2023/01/04 00:19:19;;;;;;;6.87;6.20;;;;;;;5.72;86.26;99961.56;4998044;28;103191;-67
2023/01/04 00:21:47;;;;;;;7.70;6.50;;;;;;;5.69;86.20;99960.78;4997270;28;102686;-67
2023/01/04 00:24:17;;;;;;;8.93;6.50;;;;;;;5.68;86.65;99951.19;4997298;28;102840;-71
2023/01/04 00:26:47;;;;;;;7.50;6.40;;;;;;;5.74;86.58;99948.38;4998191;28;104061;-70
2023/01/04 00:29:15;;;;;;;7.10;5.93;;;;;;;5.77;85.15;99943.03;4995717;28;103155;-70
2023/01/04 00:31:46;;;;;;;8.10;6.23;;;;;;;5.73;84.87;99926.53;4993353;28;102565;-70
2023/01/04 00:34:16;;;;;;;7.17;6.23;;;;;;;5.70;84.71;99920.53;4997841;28;103042;-70
2023/01/04 00:36:46;;;;;;;8.67;5.43;;;;;;;5.64;84.81;99915.50;5013019;28;104421;-70
2023/01/04 00:39:17;;;;;;;7.30;6.60;;;;;;;5.55;85.50;99905.31;4997894;28;103403;-71
2023/01/04 00:41:47;;;;;;;6.33;5.57;;;;;;;5.54;84.90;99908.84;5001073;28;102557;-70
2023/01/04 00:44:33;;;;;;;9.60;7.17;;;;;;;5.24;87.12;99906.31;5001598;28;102627;-70
2023/01/04 00:47:03;;;;;;;7.40;6.27;;;;;;;5.28;87.74;99896.56;4998669;28;103159;-70
2023/01/04 00:49:32;;;;;;;8.33;7.30;;;;;;;5.20;86.52;99902.06;5005077;28;103210;-70
2023/01/04 00:52:02;;;;;;;10.23;7.37;;;;;;;5.02;88.19;99907.91;5005392;28;102791;-70
2023/01/04 00:54:30;;;;;;;9.10;7.40;;;;;;;5.08;88.01;99899.81;5000675;28;103807;-70
2023/01/04 00:56:59;;;;;;;7.87;6.77;;;;;;;4.33;91.92;99907.34;4998992;28;103919;-70
2023/01/04 00:59:28;;;;;;;9.33;6.70;;;;;;;4.13;93.71;99905.28;5000386;28;103396;-70
2023/01/04 01:01:56;;;;;;;8.03;6.93;;;;;;;4.47;92.21;99905.19;5000533;28;102723;-70
2023/01/04 01:04:24;;;;;;;9.73;8.73;;;;;;;4.97;89.42;99904.53;4997309;28;104473;-70
2023/01/04 01:06:53;;;;;;;9.10;8.20;;;;;;;4.93;88.10;99909.94;4998288;28;104141;-70
2023/01/04 01:09:25;;;;;;;9.90;8.90;;;;;;;4.95;88.87;99918.59;4996385;28;103448;-70
2023/01/04 01:11:53;;;;;;;10.27;9.20;;;;;;;4.92;88.57;99911.69;4999556;28;102748;-70
2023/01/04 01:14:25;;;;;;;8.38;7.57;;;;;;;5.49;87.71;99916.88;4999911;28;102686;-70
2023/01/04 01:16:54;;;;;;;9.20;8.30;;;;;;;5.64;84.77;99912.88;4999861;28;103099;-69
2023/01/04 01:19:28;;;;;;;8.13;7.32;;;;;;;5.82;84.13;99909.63;4997784;28;103180;-71
2023/01/04 01:21:57;;;;;;;8.10;7.30;;;;;;;5.98;83.80;99910.00;4996969;28;103699;-70
2023/01/04 01:24:27;;;;;;;9.68;8.68;;;;;;;5.31;83.13;99903.47;5000081;28;104675;-69
2023/01/04 01:26:55;;;;;;;9.55;8.57;;;;;;;4.89;87.15;99914.41;4997627;28;103246;-70
2023/01/04 01:29:23;;;;;;;8.93;8.00;;;;;;;5.49;85.64;99922.09;4999099;28;103192;-70
2023/01/04 01:31:51;;;;;;;7.63;6.93;;;;;;;5.87;83.63;99918.22;5001666;28;102663;-70
2023/01/04 01:34:19;;;;;;;8.53;7.73;;;;;;;5.47;83.32;99923.94;5003603;28;103867;-69
2023/01/04 01:36:47;;;;;;;8.60;7.80;;;;;;;5.22;83.74;99920.38;4997830;28;102910;-66
2023/01/04 01:39:15;;;;;;;9.10;8.10;;;;;;;4.96;86.12;99929.03;4997574;28;103232;-66
2023/01/04 01:41:44;;;;;;;9.38;8.18;;;;;;;4.83;85.95;99932.06;5001828;28;102867;-67
2023/01/04 01:44:56;;;;;;;9.30;8.40;;;;;;;4.84;86.60;99941.63;4999183;28;103897;-67
2023/01/04 01:47:28;;;;;;;6.37;5.73;;;;;;;5.04;88.13;99939.28;4994942;28;103283;-66
2023/01/04 01:49:56;;;;;;;5.87;5.20;;;;;;;5.16;85.84;99931.91;4996670;28;103539;-66
2023/01/04 01:52:27;;;;;;;7.93;5.60;;;;;;;5.15;85.49;99917.09;4996019;28;102932;-67
2023/01/04 01:54:58;;;;;;;6.80;5.50;;;;;;;5.26;85.27;99919.34;4998763;28;102664;-66
2023/01/04 01:57:33;;;;;;;7.17;5.50;;;;;;;5.23;84.74;99920.31;5001716;28;103015;-66
2023/01/04 02:00:06;;;;;;;7.07;5.97;;;;;;;5.24;83.98;99915.94;4995734;28;103226;-66
2023/01/04 02:02:48;;;;;;;5.57;4.93;;;;;;;5.22;84.28;99913.34;4997946;28;102677;-66
2023/01/04 02:05:19;;;;;;;7.67;5.57;;;;;;;4.93;84.56;99907.31;4998503;28;102677;-66
2023/01/04 02:07:48;;;;;;;5.67;4.90;;;;;;;4.82;85.15;99915.50;4998937;28;104113;-66
2023/01/04 02:10:17;;;;;;;6.13;5.03;;;;;;;4.89;86.18;99916.16;4994587;28;103194;-66
2023/01/04 02:12:47;;;;;;;6.00;5.40;;;;;;;4.95;85.54;99908.97;4998148;28;102626;-66
2023/01/04 02:15:15;;;;;;;7.10;5.67;;;;;;;4.92;85.81;99913.44;4995447;28;102965;-66
2023/01/04 02:17:51;;;;;;;6.23;5.23;;;;;;;4.96;85.56;99910.69;4997288;28;103990;-65
2023/01/04 02:20:32;;;;;;;5.27;4.60;;;;;;;5.11;85.62;99909.34;4998508;28;103287;-65
2023/01/04 02:23:36;;;;;;;5.70;4.30;;;;;;;5.16;85.14;99903.09;4995034;28;102629;-65
2023/01/04 02:26:47;;;;;;;7.07;5.97;;;;;;;5.16;85.53;99897.84;4998718;28;102766;-66
2023/01/04 02:29:57;;;;;;;6.77;4.73;;;;;;;5.17;84.64;99881.22;4994997;28;103176;-66
2023/01/04 02:32:40;;;;;;;7.87;5.93;;;;;;;5.17;84.51;99889.06;4996954;28;103260;-66
2023/01/04 02:35:20;;;;;;;5.33;4.67;;;;;;;5.13;84.14;99884.84;4999679;28;102566;-70
2023/01/04 02:37:56;;;;;;;7.30;5.73;;;;;;;5.13;84.72;99881.38;4992759;28;102863;-70
2023/01/04 02:40:31;;;;;;;6.43;5.27;;;;;;;5.12;84.41;99875.25;4996915;28;103987;-70
2023/01/04 02:46:00;;;;;;;5.70;5.10;;;;;;;5.19;84.45;99876.75;4994619;28;102582;-71
2023/01/04 02:51:29;;;;;;;5.70;4.50;;;;;;;5.09;84.52;99870.13;4995442;28;103220;-70
2023/01/04 02:54:00;;;;;;;6.73;5.57;;;;;;;5.06;84.88;99870.22;4993345;28;103858;-70
2023/01/04 02:56:39;;;;;;;7.40;5.87;;;;;;;5.04;84.54;99856.31;4998593;28;102704;-71
2023/01/04 02:59:26;;;;;;;8.13;6.43;;;;;;;5.09;85.41;99858.78;4998163;28;102936;-70
2023/01/04 03:07:55;;;;;;;5.97;5.33;;;;;;;5.16;84.29;99848.06;4995623;28;102628;-70
2023/01/04 03:10:40;;;;;;;6.73;6.03;;;;;;;5.13;83.85;99839.44;4993976;28;103916;-70
2023/01/04 03:13:15;;;;;;;6.17;5.17;;;;;;;5.13;83.87;99842.06;4995127;28;104115;-70
2023/01/04 03:15:48;;;;;;;7.50;6.43;;;;;;;5.10;83.85;99829.94;4997040;28;103293;-66
2023/01/04 03:18:20;;;;;;;7.47;6.07;;;;;;;5.10;84.02;99829.94;4995363;28;102666;-66
2023/01/04 03:20:52;;;;;;;5.73;5.13;;;;;;;5.10;84.17;99829.06;4994990;28;102625;-66
2023/01/04 03:37:36;;;;;;;7.50;6.70;;;;;;;4.72;86.52;99817.16;4994868;28;103354;-66
2023/01/04 03:48:56;;;;;;;8.73;6.90;;;;;;;4.54;88.07;99815.13;4995170;28;103218;-67
2023/01/04 03:51:29;;;;;;;7.73;6.23;;;;;;;4.63;87.65;99807.84;4995174;28;102646;-66
2023/01/04 03:54:03;;;;;;;7.53;5.80;;;;;;;4.85;87.24;99801.94;4994949;28;102844;-66
2023/01/04 03:56:33;;;;;;;4.93;4.43;;;;;;;4.98;86.08;99814.59;4991875;28;103307;-66
2023/01/04 03:59:01;;;;;;;5.97;4.87;;;;;;;5.08;85.95;99809.94;4996408;28;103243;-66
2023/01/04 04:01:29;;;;;;;5.50;4.60;;;;;;;5.16;84.96;99808.78;4995381;28;102750;-66
2023/01/04 04:09:32;;;;;;;5.83;4.87;;;;;;;5.13;86.24;99806.25;4996102;28;103398;-66
2023/01/04 04:12:02;;;;;;;5.83;5.23;;;;;;;4.99;87.00;99804.97;5000329;28;102640;-66
2023/01/04 04:14:30;;;;;;;8.43;6.00;;;;;;;5.09;86.83;99795.91;4998435;28;103121;-66
2023/01/04 04:16:58;;;;;;;6.27;5.30;;;;;;;5.17;86.50;99792.13;4994875;28;103950;-66
2023/01/04 04:19:26;;;;;;;5.57;4.97;;;;;;;5.25;86.23;99797.97;4998406;28;103171;-66
2023/01/04 04:21:54;;;;;;;6.93;5.93;;;;;;;5.28;86.01;99792.63;4993003;28;102607;-66
2023/01/04 04:24:24;;;;;;;7.17;5.60;;;;;;;5.25;85.65;99802.34;5009948;28;102615;-66
2023/01/04 04:26:54;;;;;;;6.63;5.27;;;;;;;5.38;85.40;99792.31;4993879;28;103254;-66
2023/01/04 04:29:24;;;;;;;7.37;5.33;;;;;;;5.41;85.55;99790.44;4995354;28;103223;-66
2023/01/04 04:31:52;;;;;;;6.40;5.50;;;;;;;5.38;85.87;99790.56;4993500;28;102706;-66
2023/01/04 04:34:27;;;;;;;5.17;4.67;;;;;;;5.38;85.39;99787.94;4996924;28;104272;-66
2023/01/04 04:36:55;;;;;;;7.47;5.70;;;;;;;5.45;85.25;99783.31;4994544;28;104149;-66
2023/01/04 04:39:23;;;;;;;7.37;4.70;;;;;;;5.54;85.14;99783.00;4996456;28;103177;-66
2023/01/04 04:41:50;;;;;;;4.67;4.20;;;;;;;5.55;84.42;99790.84;4994815;28;102832;-66
2023/01/04 04:44:20;;;;;;;5.83;5.23;;;;;;;5.64;84.44;99785.25;4994958;28;103739;-66
2023/01/04 04:46:49;;;;;;;5.80;5.20;;;;;;;5.69;84.23;99785.97;4994885;28;103478;-66
2023/01/04 04:49:18;;;;;;;6.70;5.00;;;;;;;5.63;84.35;99777.44;4994113;28;103217;-66
2023/01/04 04:51:46;;;;;;;6.33;5.20;;;;;;;5.59;84.38;99770.59;4994443;28;103130;-66
2023/01/04 04:54:18;;;;;;;6.07;5.30;;;;;;;5.60;84.56;99762.69;4995991;28;102593;-66
2023/01/04 04:56:47;;;;;;;5.13;4.63;;;;;;;5.67;83.97;99763.34;4994467;28;103418;-66
2023/01/04 04:59:15;;;;;;;5.97;5.13;;;;;;;5.63;83.85;99757.34;4994692;28;103257;-66
2023/01/04 05:01:45;;;;;;;9.10;5.40;;;;;;;5.51;84.58;99756.91;4996656;28;102971;-66
2023/01/04 05:04:15;;;;;;;7.93;5.93;;;;;;;5.48;84.64;99752.63;4992967;28;103462;-66
2023/01/04 05:06:44;;;;;;;5.33;4.60;;;;;;;5.65;84.13;99755.50;4995985;28;104252;-66
2023/01/04 05:09:13;;;;;;;5.10;4.60;;;;;;;5.73;83.78;99768.34;4990617;28;103185;-66
2023/01/04 05:14:32;;;;;;;5.50;4.60;;;;;;;5.74;84.10;99764.81;4977576;28;103028;-65
2023/01/04 05:17:04;;;;;;;4.83;4.33;;;;;;;5.74;83.97;99764.81;4994184;28;104000;-66
2023/01/04 05:19:34;;;;;;;5.60;5.00;;;;;;;5.83;83.33;99774.97;4991099;28;103749;-65
2023/01/04 05:22:02;;;;;;;4.67;3.73;;;;;;;5.95;83.27;99774.53;4994729;28;102651;-66
2023/01/04 05:24:30;;;;;;;4.47;4.00;;;;;;;6.02;82.87;99767.31;4996367;28;103849;-66
2023/01/04 05:27:00;;;;;;;6.10;5.07;;;;;;;5.98;82.50;99763.94;4997993;28;103991;-66
2023/01/04 05:32:15;;;;;;;4.43;4.00;;;;;;;6.03;83.15;99754.16;4995729;28;102655;-66
2023/01/04 05:34:43;;;;;;;5.20;4.70;;;;;;;6.04;83.23;99752.34;4998538;28;102784;-66
2023/01/04 05:37:13;;;;;;;6.57;5.17;;;;;;;6.08;82.73;99754.84;4998909;28;103395;-66
2023/01/04 05:39:40;;;;;;;4.97;4.43;;;;;;;6.10;83.18;99753.00;4997461;28;103419;-66
2023/01/04 05:42:27;;;;;;;5.70;5.13;;;;;;;6.01;83.68;99758.56;4996009;28;102656;-66
2023/01/04 05:44:57;;;;;;;4.63;4.13;;;;;;;5.91;84.28;99757.22;4998668;28;104170;-66
2023/01/04 05:47:26;;;;;;;5.23;4.13;;;;;;;5.86;84.37;99750.44;4998114;28;103200;-66
2023/01/04 05:49:55;;;;;;;5.23;4.17;;;;;;;6.00;84.87;99756.88;4999070;28;103208;-66
2023/01/04 05:52:22;;;;;;;4.17;3.80;;;;;;;6.14;84.36;99753.75;4996216;28;102763;-66
2023/01/04 05:54:50;;;;;;;5.73;3.80;;;;;;;6.22;83.87;99746.44;4996376;28;102741;-66
2023/01/04 05:57:18;;;;;;;4.67;3.83;;;;;;;6.20;83.86;99743.84;4994833;28;104178;-66
2023/01/04 05:59:46;;;;;;;5.33;3.67;;;;;;;6.33;83.72;99739.00;4994244;28;103421;-66
2023/01/04 06:02:16;;;;;;;4.60;3.40;;;;;;;6.40;83.14;99738.69;4998835;28;102636;-66
2023/01/04 06:04:46;;;;;;;3.63;3.23;;;;;;;6.39;83.37;99739.63;4996755;28;102671;-66
2023/01/04 06:07:21;;;;;;;4.13;3.47;;;;;;;6.52;83.29;99741.75;4992830;28;103220;-66
2023/01/04 06:09:49;;;;;;;2.63;2.30;;;;;;;6.53;83.40;99730.34;4993044;28;103527;-67
2023/01/04 06:12:17;;;;;;;3.77;2.40;;;;;;;6.58;83.33;99738.88;4998421;28;102590;-67
2023/01/04 06:14:45;;;;;;;3.80;2.80;;;;;;;6.58;83.23;99729.25;4996258;28;103704;-66
2023/01/04 06:17:13;;;;;;;3.83;2.93;;;;;;;6.50;83.18;99736.56;4997719;28;104017;-66
2023/01/04 06:19:41;;;;;;;3.03;2.73;;;;;;;6.51;83.48;99733.03;5001416;28;103047;-67
2023/01/04 06:22:11;;;;;;;3.17;2.53;;;;;;;6.62;83.25;99729.97;5006283;27;102918;-67
2023/01/04 06:24:39;;;;;;;4.23;3.10;;;;;;;6.63;83.07;99726.41;4996008;28;103805;-67
2023/01/04 06:27:06;;;;;;;3.20;2.77;;;;;;;6.79;83.06;99730.16;4994472;28;104056;-67
2023/01/04 06:29:34;;;;;;;3.50;2.87;;;;;;;6.83;82.75;99740.47;4998515;28;103339;-66
2023/01/04 06:32:02;;;;;;;3.73;3.13;;;;;;;6.86;82.48;99731.59;4994706;28;103827;-66
2023/01/04 06:34:30;;;;;;;3.10;2.80;;;;;;;6.86;82.38;99740.34;4995488;28;102744;-66
2023/01/04 06:36:58;;;;;;;5.20;3.50;;;;;;;6.85;82.11;99738.63;4996765;28;103236;-66
2023/01/04 06:39:27;;;;;;;3.30;3.00;;;;;;;6.70;82.85;99738.41;5000257;28;103231;-70
2023/01/04 06:41:57;;;;;;;5.90;3.60;;;;;;;6.79;82.94;99738.03;4995125;28;102766;-69
2023/01/04 06:44:33;;;;;;;4.10;3.70;;;;;;;6.82;82.58;99730.88;4993915;28;104446;-70
2023/01/04 06:47:00;;;;;;;5.23;3.80;;;;;;;6.71;82.98;99737.50;4993687;28;103336;-70
2023/01/04 06:49:28;;;;;;;4.23;3.60;;;;;;;6.80;82.62;99729.22;4995809;28;103233;-70
2023/01/04 06:51:56;;;;;;;4.47;3.57;;;;;;;6.73;82.39;99728.63;4992465;28;102801;-66
2023/01/04 06:54:24;;;;;;;4.07;3.60;;;;;;;6.80;82.34;99724.84;4990931;28;104309;-65
2023/01/04 06:56:53;;;;;;;5.33;3.43;;;;;;;6.88;82.15;99730.63;4996597;28;103223;-66
2023/01/04 06:59:21;;;;;;;6.07;4.13;;;;;;;6.92;82.10;99732.22;4993680;28;103295;-66
2023/01/04 07:01:49;;;;;;;4.03;3.40;;;;;;;6.97;82.29;99721.50;4992956;28;103130;-66
2023/01/04 07:04:17;;;;;;;4.20;3.33;;;;;;;7.02;82.44;99723.97;4996033;28;102777;-66
2023/01/04 07:06:47;;;;;;;3.93;3.43;;;;;;;6.89;83.12;99715.72;4997250;28;104483;-66
2023/01/04 07:09:15;;;;;;;7.43;4.07;;;;;;;6.82;83.29;99714.28;4994601;28;102976;-66
2023/01/04 07:11:44;;;;;;;3.57;3.10;;;;;;;6.89;83.03;99723.59;4993731;28;102677;-66
2023/01/04 07:14:13;;;;;;;4.87;3.13;;;;;;;6.82;83.64;99711.66;4997051;28;103921;-66
2023/01/04 07:16:41;;;;;;;4.03;3.00;;;;;;;6.97;83.15;99726.75;4992168;28;103263;-66
2023/01/04 07:19:09;;;;;;;3.90;2.77;;;;;;;7.10;82.64;99727.13;4992999;28;103227;-69
2023/01/04 07:21:37;;;;;;;3.67;2.90;;;;;;;6.94;82.82;99717.22;4991871;28;102729;-67
2023/01/04 07:24:05;;;;;;;3.53;2.93;;;;;;;7.07;82.69;99722.00;4976056;28;102703;-67
2023/01/04 07:26:33;;;;;;;3.27;2.97;;;;;;;7.08;82.39;99724.53;4985656;28;103228;-66
2023/01/04 07:29:16;;;;;;;4.23;3.10;;;;;;;7.17;82.04;99718.03;4987222;28;103710;-66
2023/01/04 07:31:48;;;;;;;2.93;2.63;;;;;;;7.16;82.11;99717.19;4988229;28;104281;-66
2023/01/04 07:34:17;;;;;;;3.17;2.50;;;;;;;7.26;81.86;99713.25;4987162;28;103776;-66
2023/01/04 07:36:46;;;;;;;2.73;2.40;;;;;;;7.30;82.88;99708.69;4985213;28;103221;-65
2023/01/04 07:39:14;;;;;;;2.93;2.50;;;;;;;7.33;82.93;99714.69;4985926;28;103200;-66
2023/01/04 07:41:43;;;;;;;3.33;3.00;;;;;;;7.23;83.75;99713.38;5002098;27;102755;-65
2023/01/04 07:44:11;;;;;;;3.63;3.07;;;;;;;7.26;84.61;99699.25;4976946;28;103933;-66
2023/01/04 07:46:39;;;;;;;3.30;3.00;;;;;;;7.37;84.36;99694.38;4989756;28;103344;-67
2023/01/04 07:49:11;;;;;;;5.80;3.90;;;;;;;7.22;85.40;99685.38;4990886;28;103222;-68
2023/01/04 07:51:45;;;;;;;6.10;4.47;;;;;;;7.25;85.61;99695.78;4995368;28;102701;-67
2023/01/04 07:54:14;;;;;;;4.93;3.20;;;;;;;7.24;85.24;99701.94;4992404;28;104098;-68
2023/01/04 07:56:42;;;;;;;3.53;3.20;;;;;;;7.25;85.63;99700.16;4995199;28;103284;-67
2023/01/04 07:59:11;;;;;;;4.30;3.47;;;;;;;7.26;86.78;99702.75;4992643;28;103211;-68
2023/01/04 08:01:39;;;;;;;5.90;3.50;;;;;;;7.23;86.38;99697.63;4994190;28;103048;-69
2023/01/04 08:04:12;;;;;;;3.83;2.97;;;;;;;7.25;86.76;99690.50;4996527;28;102607;-68
2023/01/04 08:06:42;;;;;;;4.73;4.00;;;;;;;7.24;87.41;99683.53;4994940;28;103963;-68
2023/01/04 08:09:11;;;;;;;4.07;2.80;;;;;;;7.18;87.96;99688.22;4994667;28;103282;-68
2023/01/04 08:11:39;;;;;;;6.63;2.70;;;;;;;7.26;87.68;99676.47;4993014;28;102729;-67
2023/01/04 08:14:07;;;;;;;3.50;2.70;;;;;;;7.22;87.33;99674.88;4980882;28;104124;-68
2023/01/04 08:16:37;;;;;;;3.20;2.90;;;;;;;7.12;88.43;99668.31;4992303;28;103272;-68
2023/01/04 08:19:07;;;;;;;3.87;3.47;;;;;;;7.10;87.95;99669.31;4989706;28;103445;-67
2023/01/04 08:21:40;;;;;;;4.50;3.60;;;;;;;7.13;87.95;99659.50;4996999;28;102830;-71
2023/01/04 08:24:14;;;;;;;3.57;3.13;;;;;;;7.15;87.84;99662.06;5009596;27;102880;-70
2023/01/04 08:26:43;;;;;;;4.30;3.07;;;;;;;7.23;88.10;99667.84;4987791;28;103122;-71
2023/01/04 08:29:12;;;;;;;3.00;2.70;;;;;;;7.25;88.00;99666.84;4993658;28;103225;-70
2023/01/04 08:31:42;;;;;;;3.30;3.00;;;;;;;7.31;87.84;99673.63;4993575;28;102992;-71
2023/01/04 08:34:10;;;;;;;3.23;2.70;;;;;;;7.36;88.08;99666.38;4993137;28;104186;-71
2023/01/04 08:36:47;;;;;;;3.20;2.33;;;;;;;7.48;87.22;99661.44;4990857;28;103253;-70
2023/01/04 08:39:18;;;;;;;3.20;2.63;;;;;;;7.56;86.97;99656.69;4988768;28;103190;-71
2023/01/04 08:41:52;;;;;;;3.83;2.43;;;;;;;7.66;87.20;99653.66;4989613;28;102758;-71
2023/01/04 08:44:40;;;;;;;2.10;1.50;;;;;;;7.76;86.55;99649.66;4981672;28;102779;-71
2023/01/04 08:47:08;;;;;;;2.47;1.40;;;;;;;7.77;85.97;99635.59;4984858;28;104286;-71
2023/01/04 08:49:36;;;;;;;2.70;1.30;;;;;;;7.81;84.95;99629.25;4985246;28;103227;-70
2023/01/04 08:52:07;;;;;;;2.10;1.30;;;;;;;7.79;84.88;99623.22;4986384;28;103228;-71
2023/01/04 08:54:36;;;;;;;1.63;1.07;;;;;;;7.77;84.88;99625.06;4989592;28;103693;-68
2023/01/04 08:57:06;;;;;;;1.93;1.00;;;;;;;7.84;83.48;99623.84;4989372;28;103541;-70
2023/01/04 08:59:34;;;;;;;1.13;0.77;;;;;;;8.08;82.34;99630.59;4990442;28;104289;-70
2023/01/04 09:02:02;;;;;;;1.83;0.90;;;;;;;8.02;83.80;99630.91;4990882;28;103775;-71
2023/01/04 09:04:33;;;;;;;1.50;0.90;;;;;;;8.01;82.16;99621.28;4988962;28;105482;-72
2023/01/04 09:07:01;;;;;;;2.43;0.77;;;;;;;8.10;81.86;99624.34;4986976;28;103205;-73
2023/01/04 09:09:30;;;;;;;0.97;0.73;;;;;;;8.23;81.00;99623.72;4989489;28;104398;-71
2023/01/04 09:11:58;;;;;;;2.10;0.90;;;;;;;8.25;80.71;99632.44;4991542;28;102743;-71
2023/01/04 09:14:26;;;;;;;2.07;0.93;;;;;;;8.35;80.96;99639.84;4988995;28;102741;-70
2023/01/04 09:16:54;;;;;;;0.77;0.70;;;;;;;8.40;80.02;99629.06;4989131;28;103238;-70
2023/01/04 09:19:22;;;;;;;0.87;0.70;;;;;;;8.53;79.29;99633.66;4992507;28;103200;-71
2023/01/04 09:21:50;;;;;;;2.67;0.70;;;;;;;8.37;79.94;99626.59;4988945;28;102689;-71
2023/01/04 09:24:18;;;;;;;1.37;0.63;;;;;;;8.39;79.59;99622.13;4986635;28;102778;-70
2023/01/04 09:26:48;;;;;;;1.70;0.73;;;;;;;8.50;78.71;99623.31;4987671;28;103601;-70
2023/01/04 09:29:16;;;;;;;1.90;0.70;;;;;;;8.44;77.51;99623.59;4994315;28;102633;-71
2023/01/04 09:31:44;;;;;;;1.63;0.60;;;;;;;8.67;77.85;99631.19;4993594;28;102757;-71
2023/01/04 09:34:12;;;;;;;2.60;0.90;;;;;;;8.61;76.50;99636.78;4989104;28;103771;-71
2023/01/04 09:36:44;;;;;;;1.80;0.60;;;;;;;8.76;76.50;99634.31;4987747;28;104110;-71
2023/01/04 09:39:12;;;;;;;1.50;0.60;;;;;;;8.74;76.87;99629.97;4987014;28;103322;-70
2023/01/04 09:41:56;;;;;;;2.43;0.70;;;;;;;8.68;76.50;99622.38;4992072;22;103569;-72
2023/01/04 09:44:33;;;;;;;1.63;0.60;;;;;;;8.87;76.25;99616.19;4981956;28;104280;-70
2023/01/04 09:47:32;;;;;;;2.37;0.70;;;;;;;8.93;75.73;99629.03;5013762;28;103808;-70
2023/01/04 09:50:05;;;;;;;2.03;0.80;;;;;;;8.95;75.38;99630.69;5013170;28;102978;-70
2023/01/04 09:52:51;;;;;;;1.53;0.80;;;;;;;8.94;75.37;99625.47;5006962;28;102661;-70
2023/01/04 09:55:23;;;;;;;1.07;0.70;;;;;;;8.86;76.28;99625.00;5011596;28;103648;-70
2023/01/04 09:58:20;;;;;;;1.80;0.80;;;;;;;8.96;75.11;99626.22;4994991;28;103330;-70
2023/01/04 10:00:51;;;;;;;1.07;0.70;;;;;;;8.95;74.96;99611.38;5014894;28;103153;-70
2023/01/04 10:03:24;;;;;;;0.83;0.77;;;;;;;8.92;74.73;99603.63;5001213;28;103086;-70
2023/01/04 10:05:55;;;;;;;2.50;0.80;;;;;;;8.99;75.00;99599.72;4997304;28;103602;-69
2023/01/04 10:08:23;;;;;;;1.57;0.87;;;;;;;9.03;74.67;99602.13;5015985;28;104162;-70
2023/01/04 10:11:02;;;;;;;1.53;0.80;;;;;;;9.06;74.50;99590.59;5014056;27;103233;-70
2023/01/04 10:13:50;;;;;;;3.70;0.77;;;;;;;9.07;74.08;99587.00;5012799;28;103018;-70
2023/01/04 10:16:34;;;;;;;1.07;0.70;;;;;;;9.02;74.13;99589.03;4991484;28;103734;-70
2023/01/04 10:19:37;;;;;;;1.10;0.80;;;;;;;9.27;74.10;99587.66;4996776;28;104307;-70
2023/01/04 10:22:33;;;;;;;2.60;1.03;;;;;;;9.17;73.99;99575.06;5016038;28;103269;-71
2023/01/04 10:25:15;;;;;;;3.20;1.00;;;;;;;9.35;73.99;99575.88;5014224;28;103002;-71
2023/01/04 10:27:53;;;;;;;2.57;0.80;;;;;;;9.39;74.13;99572.97;5016582;28;103784;-70
2023/01/04 10:30:30;;;;;;;0.93;0.80;;;;;;;9.48;73.72;99577.75;5014323;28;103296;-70
2023/01/04 10:33:10;;;;;;;0.90;0.80;;;;;;;9.46;73.76;99573.50;5015058;27;103227;-71
2023/01/04 10:35:39;;;;;;;0.87;0.77;;;;;;;9.42;73.89;99559.63;4998009;28;102726;-66
2023/01/04 10:38:15;;;;;;;3.60;0.70;;;;;;;9.40;73.94;99569.41;5016934;27;102904;-71
2023/01/04 10:40:46;;;;;;;2.50;0.77;;;;;;;9.44;73.77;99555.09;5013148;27;104123;-66
2023/01/04 10:43:24;;;;;;;2.53;0.80;;;;;;;9.64;73.52;99557.50;5014480;28;103206;-66
2023/01/04 10:45:59;;;;;;;1.67;0.67;;;;;;;9.70;73.89;99545.78;5015035;28;102682;-66
2023/01/04 10:48:37;;;;;;;0.93;0.63;;;;;;;9.68;73.61;99547.66;5014760;28;103064;-66
2023/01/04 10:51:06;;;;;;;1.40;0.80;;;;;;;9.72;73.38;99544.75;5013112;28;103920;-66
2023/01/04 10:53:44;;;;;;;1.33;0.70;;;;;;;9.96;72.86;99553.09;4994660;28;104187;-66
2023/01/04 10:56:19;;;;;;;1.80;0.83;;;;;;;9.80;73.24;99550.44;5015037;28;102615;-66
2023/01/04 10:59:00;;;;;;;2.43;1.00;;;;;;;9.96;72.54;99544.31;5013274;28;104122;-66
2023/01/04 11:01:34;;;;;;;5.57;1.83;;;;;;;10.05;72.61;99542.00;5009059;28;103264;-67
2023/01/04 11:04:09;;;;;;;2.10;0.90;;;;;;;9.90;72.69;99538.44;5015592;28;103280;-66
2023/01/04 11:06:44;;;;;;;2.00;0.90;;;;;;;10.05;72.53;99535.88;4992311;28;102933;-66
2023/01/04 11:09:17;;;;;;;1.57;1.07;;;;;;;10.19;72.59;99528.06;5012414;27;103582;-66
2023/01/04 11:11:55;;;;;;;0.93;0.67;;;;;;;10.28;72.10;99522.22;5013744;28;103044;-66
2023/01/04 11:14:24;;;;;;;2.13;0.77;;;;;;;10.14;72.74;99525.66;5015183;28;103231;-66
2023/01/04 11:16:58;;;;;;;1.03;0.83;;;;;;;10.09;72.94;99511.00;4989200;28;103473;-66
2023/01/04 11:19:28;;;;;;;1.43;0.60;;;;;;;10.12;72.19;99505.53;5014686;28;103017;-70
2023/01/04 11:22:04;;;;;;;2.83;0.80;;;;;;;10.03;71.82;99506.06;5015089;28;103209;-70
2023/01/04 11:24:34;;;;;;;2.33;0.70;;;;;;;10.12;71.80;99502.91;5011213;28;103170;-70
2023/01/04 11:27:11;;;;;;;1.03;0.60;;;;;;;10.16;71.76;99502.66;5021094;27;102741;-66
2023/01/04 11:29:48;;;;;;;1.00;0.50;;;;;;;10.16;71.84;99486.81;5018398;27;103633;-66
2023/01/04 11:32:27;;;;;;;1.07;0.80;;;;;;;10.22;71.57;99496.16;5012481;28;103939;-66
2023/01/04 11:34:56;;;;;;;1.23;0.60;;;;;;;10.21;71.43;99494.47;5012979;28;103250;-66
2023/01/04 11:37:28;;;;;;;2.07;0.60;;;;;;;10.21;71.55;99489.19;5014273;28;102701;-67
2023/01/04 11:40:21;;;;;;;1.57;0.70;;;;;;;10.32;71.52;99487.63;5011990;27;102699;-67
2023/01/04 11:42:51;;;;;;;1.37;0.70;;;;;;;10.27;71.61;99494.94;4991640;27;104446;-67
2023/01/04 11:45:22;;;;;;;0.90;0.60;;;;;;;10.24;71.48;99489.88;5015011;27;103212;-67
2023/01/04 11:47:54;;;;;;;1.10;0.73;;;;;;;10.43;71.19;99479.06;4995406;28;102768;-66
2023/01/04 11:50:38;;;;;;;1.90;0.80;;;;;;;10.48;71.01;99479.63;5012124;28;102662;-67
2023/01/04 11:53:23;;;;;;;2.17;0.90;;;;;;;10.47;71.05;99478.78;4993647;28;104082;-67
2023/01/04 11:56:13;;;;;;;1.60;0.80;;;;;;;10.35;71.28;99476.03;5009892;28;103177;-66
2023/01/04 11:58:43;;;;;;;1.50;0.93;;;;;;;10.35;71.30;99483.97;5013068;28;102692;-67
2023/01/04 12:01:23;;;;;;;2.73;0.80;;;;;;;10.46;71.15;99486.81;4995641;28;102775;-66
2023/01/04 12:03:52;;;;;;;3.10;1.00;;;;;;;10.51;71.24;99490.03;5012908;28;103412;-66
2023/01/04 12:06:25;;;;;;;1.30;0.70;;;;;;;10.37;71.88;99480.28;4993263;28;104182;-67
2023/01/04 12:08:53;;;;;;;1.70;0.80;;;;;;;10.35;71.80;99489.25;5013648;28;102735;-67
2023/01/04 12:11:26;;;;;;;1.60;0.70;;;;;;;10.47;71.55;99481.41;5012893;27;102676;-67
2023/01/04 12:13:54;;;;;;;1.43;0.80;;;;;;;10.43;71.58;99485.19;4990125;28;103949;-68
2023/01/04 12:16:33;;;;;;;2.50;1.00;;;;;;;10.36;72.22;99473.28;5010703;28;103328;-67
2023/01/04 12:19:03;;;;;;;3.47;0.87;;;;;;;10.51;71.92;99475.97;5012118;28;104121;-68
2023/01/04 12:21:34;;;;;;;1.83;0.90;;;;;;;10.49;71.91;99473.41;5011635;28;104072;-68
2023/01/04 12:24:06;;;;;;;1.00;0.70;;;;;;;10.52;71.86;99475.88;4993787;28;104101;-68
2023/01/04 12:26:41;;;;;;;1.80;0.80;;;;;;;10.75;71.77;99459.47;5014617;27;104138;-67
2023/01/04 12:29:41;;;;;;;1.00;0.77;;;;;;;10.61;71.98;99467.38;4991652;28;102726;-67
2023/01/04 12:32:39;;;;;;;3.33;0.70;;;;;;;10.63;72.50;99476.09;5015838;27;103937;-67
2023/01/04 12:35:40;;;;;;;0.87;0.70;;;;;;;10.53;72.62;99467.00;4998373;28;104388;-68
2023/01/04 12:38:10;;;;;;;1.97;1.07;;;;;;;10.61;72.56;99448.06;5004976;28;103894;-68
2023/01/04 12:40:55;;;;;;;2.70;0.90;;;;;;;10.67;72.39;99445.00;5008347;28;102797;-68
2023/01/04 12:43:25;;;;;;;1.40;0.60;;;;;;;10.63;72.57;99448.81;5005243;28;102993;-68